createdAt,value
2023-01-06T00:03:09.612Z,18.82
2023-01-06T00:08:11.356Z,18.82
2023-01-06T00:13:13.315Z,18.84
2023-01-06T00:18:15.233Z,18.78
2023-01-06T00:23:16.890Z,18.87
2023-01-06T00:28:18.825Z,18.80
2023-01-06T00:33:24.962Z,18.79
2023-01-06T00:38:27.017Z,18.81
2023-01-06T00:43:28.675Z,18.69
2023-01-06T00:48:30.355Z,18.74
2023-01-06T00:53:31.993Z,18.71
2023-01-06T00:58:34.019Z,18.79
2023-01-06T01:03:37.902Z,18.72
2023-01-06T01:08:39.558Z,18.82
2023-01-06T01:13:41.217Z,18.79
2023-01-06T01:18:42.876Z,18.89
2023-01-06T01:23:44.529Z,18.74
2023-01-06T01:28:46.259Z,18.63
2023-01-06T01:33:48.139Z,18.79
2023-01-06T01:38:49.949Z,18.79
2023-01-06T01:43:58.129Z,18.76
2023-01-06T01:49:11.199Z,18.69
2023-01-06T01:54:21.595Z,18.79
2023-01-06T01:59:27.327Z,18.79
2023-01-06T02:04:32.272Z,18.76
2023-01-06T02:09:41.868Z,18.76
2023-01-06T02:14:43.507Z,18.81
2023-01-06T02:20:25.349Z,18.71
2023-01-06T02:25:56.451Z,18.80
2023-01-06T02:31:36.252Z,18.87
2023-01-06T02:36:38.118Z,18.74
2023-01-06T02:41:48.329Z,18.77
2023-01-06T02:47:01.755Z,18.81
2023-01-06T02:52:20.987Z,18.85
2023-01-06T02:57:59.650Z,18.76
2023-01-06T03:03:09.756Z,18.82
2023-01-06T03:08:20.652Z,18.79
2023-01-06T03:13:33.621Z,18.73
2023-01-06T03:18:37.399Z,18.66
2023-01-06T03:23:41.419Z,18.82
2023-01-06T03:28:43.150Z,18.78
2023-01-06T03:34:07.698Z,18.82
2023-01-06T03:39:18.057Z,18.80
2023-01-06T03:44:48.829Z,18.77
2023-01-06T03:50:17.493Z,18.73
2023-01-06T03:55:24.129Z,18.83
2023-01-06T04:00:33.045Z,18.72
2023-01-06T04:05:34.761Z,18.79
2023-01-06T04:10:36.406Z,18.78
2023-01-06T04:15:38.078Z,18.69
2023-01-06T04:20:39.849Z,18.64
2023-01-06T04:25:43.527Z,18.71
2023-01-06T04:30:46.410Z,18.86
2023-01-06T04:35:48.065Z,18.82
2023-01-06T04:40:49.724Z,18.81
2023-01-06T04:45:51.632Z,18.78
2023-01-06T04:51:03.057Z,18.74
2023-01-06T04:56:06.701Z,18.73
2023-01-06T05:01:11.935Z,18.72
2023-01-06T05:06:14.319Z,18.80
2023-01-06T05:11:19.117Z,18.76
2023-01-06T05:16:23.164Z,18.84
2023-01-06T05:21:27.242Z,18.73
2023-01-06T05:26:29.182Z,18.75
2023-01-06T05:31:30.982Z,18.76
2023-01-06T05:36:32.703Z,18.76
2023-01-06T05:41:34.449Z,18.78
2023-01-06T05:46:36.308Z,18.76
2023-01-06T05:51:38.010Z,18.74
2023-01-06T05:56:39.819Z,18.78
2023-01-06T06:01:41.626Z,18.75
2023-01-06T06:06:43.379Z,18.75
2023-01-06T06:11:45.094Z,18.84
2023-01-06T06:16:46.833Z,18.83
2023-01-06T06:21:48.595Z,18.73
2023-01-06T06:26:50.259Z,18.87
2023-01-06T06:31:51.973Z,18.80
2023-01-06T06:36:54.303Z,18.81
2023-01-06T06:41:55.971Z,18.82
2023-01-06T06:46:58.498Z,18.79
2023-01-06T06:52:00.136Z,18.74
2023-01-06T06:57:01.811Z,18.78
2023-01-06T07:02:03.756Z,18.68
2023-01-06T07:07:05.493Z,18.83
2023-01-06T07:12:07.417Z,18.81
2023-01-06T07:22:24.696Z,18.71
2023-01-06T07:27:26.365Z,18.76
2023-01-06T07:32:28.050Z,18.72
2023-01-06T07:37:29.948Z,18.74
2023-01-06T07:42:31.898Z,18.74
2023-01-06T07:47:33.982Z,18.84
2023-01-06T07:52:36.086Z,18.84
2023-01-06T07:57:38.294Z,18.89
2023-01-06T08:02:40.385Z,18.92
2023-01-06T08:07:42.520Z,18.93
2023-01-06T08:12:44.628Z,18.94
2023-01-06T08:17:46.435Z,18.91
2023-01-06T08:22:48.618Z,18.89
2023-01-06T08:27:50.779Z,18.88
2023-01-06T08:32:52.612Z,18.87
2023-01-06T08:37:54.419Z,18.84
2023-01-06T08:42:56.360Z,18.83
2023-01-06T08:47:58.233Z,18.85
2023-01-06T08:53:00.252Z,18.83
2023-01-06T08:58:01.959Z,18.84
2023-01-06T09:03:03.971Z,18.85
2023-01-06T09:08:06.115Z,18.71
2023-01-06T09:13:07.911Z,18.76
2023-01-06T09:18:10.937Z,18.69
2023-01-06T09:23:13.187Z,18.79
2023-01-06T09:28:15.076Z,18.63
2023-01-06T09:33:17.679Z,18.72
2023-01-06T09:38:20.245Z,18.77
2023-01-06T09:43:41.056Z,18.68
2023-01-06T09:48:58.907Z,18.39
2023-01-06T09:54:13.697Z,18.39
2023-01-06T09:59:26.359Z,18.57
2023-01-06T10:04:30.917Z,18.64
2023-01-06T10:09:45.287Z,18.43
2023-01-06T10:15:22.416Z,18.52
2023-01-06T10:20:30.926Z,18.54
2023-01-06T10:26:00.114Z,18.63
2023-01-06T10:31:06.515Z,18.49
2023-01-06T10:36:14.466Z,18.48
2023-01-06T10:41:39.705Z,18.62
2023-01-06T10:46:45.468Z,18.66
2023-01-06T10:51:53.106Z,18.72
2023-01-06T10:57:04.465Z,18.67
2023-01-06T11:02:06.528Z,18.68
2023-01-06T11:07:14.997Z,18.65
2023-01-06T11:12:23.432Z,18.60
2023-01-06T11:17:26.003Z,18.63
2023-01-06T11:22:37.027Z,18.63
2023-01-06T11:27:38.919Z,18.62
2023-01-06T11:32:42.903Z,18.65
2023-01-06T11:37:45.709Z,18.82
2023-01-06T11:42:53.938Z,18.88
2023-01-06T11:47:55.920Z,18.67
2023-01-06T11:53:14.396Z,18.75
2023-01-06T11:58:21.709Z,18.71
2023-01-06T12:03:30.149Z,18.73
2023-01-06T12:08:40.948Z,18.81
2023-01-06T12:13:44.959Z,18.81
2023-01-06T12:18:53.150Z,18.79
2023-01-06T12:23:57.056Z,18.81
2023-01-06T12:29:00.152Z,18.75
2023-01-06T12:34:16.573Z,18.74
2023-01-06T12:39:46.119Z,18.68
2023-01-06T12:44:57.064Z,18.71
2023-01-06T12:50:05.944Z,18.84
2023-01-06T12:55:15.401Z,18.80
2023-01-06T13:00:40.638Z,18.88
2023-01-06T13:05:55.136Z,18.80
2023-01-06T13:11:05.220Z,18.81
2023-01-06T13:16:36.252Z,18.77
2023-01-06T13:21:39.738Z,18.81
2023-01-06T13:26:41.776Z,18.90
2023-01-06T13:32:08.488Z,18.82
2023-01-06T13:37:21.106Z,18.89
2023-01-06T13:42:37.759Z,18.82
2023-01-06T13:47:40.504Z,18.87
2023-01-06T13:52:43.436Z,18.83
2023-01-06T13:57:45.677Z,18.87
2023-01-06T14:02:50.926Z,18.85
2023-01-06T14:08:00.105Z,18.84
2023-01-06T14:13:05.354Z,18.87
2023-01-06T14:18:07.529Z,18.79
2023-01-06T14:23:24.356Z,18.84
2023-01-06T14:28:36.188Z,18.82
2023-01-06T14:33:40.104Z,18.83
2023-01-06T14:38:55.679Z,18.83
2023-01-06T14:44:03.263Z,18.87
2023-01-06T14:49:07.565Z,18.88
2023-01-06T14:54:41.501Z,18.84
2023-01-06T14:59:43.261Z,18.88
2023-01-06T15:04:45.112Z,18.84
2023-01-06T15:09:51.522Z,18.86
2023-01-06T15:14:53.490Z,18.84
2023-01-06T15:19:55.290Z,18.86
2023-01-06T15:24:57.173Z,18.87
2023-01-06T15:29:59.106Z,18.85
2023-01-06T15:35:01.278Z,18.85
2023-01-06T15:40:05.747Z,18.81
2023-01-06T15:45:24.932Z,18.83
2023-01-06T15:50:32.228Z,18.92
2023-01-06T15:55:36.911Z,18.66
2023-01-06T16:01:08.892Z,18.56
2023-01-06T16:06:12.876Z,18.71
2023-01-06T16:11:18.123Z,18.44
2023-01-06T16:16:20.014Z,18.88
2023-01-06T16:21:28.692Z,18.55
2023-01-06T16:26:41.423Z,18.66
2023-01-06T16:31:43.447Z,18.64
2023-01-06T16:36:45.584Z,18.54
2023-01-06T16:41:59.692Z,18.74
2023-01-06T16:47:02.618Z,18.82
2023-01-06T16:52:04.489Z,18.97
2023-01-06T16:57:10.314Z,18.96
2023-01-06T17:02:17.878Z,19.04
2023-01-06T17:07:19.711Z,18.87
2023-01-06T17:12:39.854Z,18.92
2023-01-06T17:17:42.033Z,18.86
2023-01-06T17:22:43.941Z,18.88
2023-01-06T17:27:48.337Z,18.93
2023-01-06T17:32:51.429Z,18.91
2023-01-06T17:37:54.344Z,18.89
2023-01-06T17:43:08.711Z,18.98
2023-01-06T17:48:12.065Z,18.92
2023-01-06T17:53:48.054Z,18.81
2023-01-06T17:58:50.419Z,18.83
2023-01-06T18:03:54.948Z,18.96
2023-01-06T18:09:11.477Z,18.91
2023-01-06T18:14:30.076Z,18.92
2023-01-06T18:19:40.787Z,18.81
2023-01-06T18:24:43.778Z,18.81
2023-01-06T18:29:46.022Z,18.93
2023-01-06T18:34:50.199Z,18.95
2023-01-06T18:39:55.984Z,18.98
2023-01-06T18:45:20.808Z,18.93
2023-01-06T18:50:44.527Z,18.93
2023-01-06T18:55:47.675Z,18.96
2023-01-06T19:01:01.500Z,19.05
2023-01-06T19:06:27.926Z,18.82
2023-01-06T19:11:32.936Z,18.84
2023-01-06T19:16:37.925Z,18.95
2023-01-06T19:21:39.930Z,18.96
2023-01-06T19:26:42.341Z,18.88
2023-01-06T19:31:53.904Z,18.89
2023-01-06T19:37:00.041Z,18.85
2023-01-06T19:42:08.800Z,18.89
2023-01-06T19:47:18.866Z,18.91
2023-01-06T19:52:34.499Z,18.96
2023-01-06T19:57:40.148Z,19.04
2023-01-06T20:02:45.423Z,18.92
2023-01-06T20:07:47.352Z,19.07
2023-01-06T20:12:49.634Z,18.97
2023-01-06T20:17:51.616Z,18.96
2023-01-06T20:22:53.776Z,19.06
2023-01-06T20:27:55.903Z,18.96
2023-01-06T20:32:58.048Z,18.95
2023-01-06T20:38:01.071Z,19.06
2023-01-06T20:43:03.126Z,19.04
2023-01-06T20:48:05.344Z,18.94
2023-01-06T20:53:07.230Z,18.97
2023-01-06T20:58:09.363Z,18.99
2023-01-06T21:03:11.561Z,18.99
2023-01-06T21:08:13.600Z,18.98
2023-01-06T21:13:16.164Z,18.98
2023-01-06T21:18:18.238Z,19.02
2023-01-06T21:23:20.205Z,18.99
2023-01-06T21:28:22.668Z,19.02
2023-01-06T21:33:24.943Z,18.93
2023-01-06T21:38:27.040Z,18.89
2023-01-06T21:43:28.912Z,18.92
2023-01-06T21:48:30.865Z,18.91
2023-01-06T21:53:32.738Z,18.89
2023-01-06T21:58:35.529Z,18.91
2023-01-06T22:03:37.711Z,18.94
2023-01-06T22:08:39.629Z,18.89
2023-01-06T22:13:41.800Z,18.85
2023-01-06T22:18:43.707Z,18.88
2023-01-06T22:23:45.893Z,18.85
2023-01-06T22:28:47.653Z,18.85
2023-01-06T22:33:49.530Z,18.84
2023-01-06T22:38:52.469Z,18.85
2023-01-06T22:43:54.298Z,18.75
2023-01-06T22:48:56.312Z,18.81
2023-01-06T22:53:59.370Z,18.83
2023-01-06T22:59:01.437Z,18.82
2023-01-06T23:04:03.877Z,18.75
2023-01-06T23:09:05.945Z,18.86
2023-01-06T23:14:09.525Z,18.75
2023-01-06T23:19:13.892Z,18.84
2023-01-06T23:24:15.855Z,18.95
2023-01-06T23:29:17.831Z,18.92
2023-01-06T23:34:20.028Z,18.87
2023-01-06T23:39:22.234Z,18.79
2023-01-06T23:44:24.074Z,18.83
2023-01-06T23:49:26.100Z,18.92
2023-01-06T23:54:28.260Z,18.88
2023-01-06T23:59:30.333Z,18.93
